Chesterfield, MA (01012)

5:03 PM EDT on July 07, 2015 (GMT -0400)
Chesterfield | | Change Station
CLOSE
Current Station
Personal Weather Station
Location: Chesterfield, MA
Elevation: 1190 ft
Nearby Weather Stations

Elev 1190 ft 42.36 °N, 72.85 °W | Updated 5 minutes ago

Overcast
Overcast
69.7 °F
Feels Like 69.7 °F
N
0.0
Wind Variable Wind from SE
Gusts 4.0 mph

Today
High -- | Low -- °F
--% Chance of Precip.
Yesterday
High -- | Low -- °F
Precip. -- in
5:21 AM 8:30 PM
Waning Gibbous, 61% visible
Pressure 29.94 in
Visibility 10.0 miles
Clouds Few 2700 ft
Mostly Cloudy 3400 ft
Mostly Cloudy 4400 ft
Dew Point 69 °F
Humidity 97%
Rainfall 0.92 in
Snow Depth Not available.
UV 3 out of 12
Pollen 3.00 out of 12
Air Quality Not available.
Flu Activity Not available.
METAR KBAF 072053Z 18013G19KT 10SM FEW027 BKN034 BKN044 28/22 A2994 RMK AO2 LTG DSNT NW-NE SLP136 T02830222 56014

More Conditions Fewer Conditions

Pressure 29.94 in
Visibility 10.0 miles
Clouds Few 2700 ft
Mostly Cloudy 3400 ft
Mostly Cloudy 4400 ft
Dew Point 69 °F
Humidity 97%
Rainfall 0.92 in
Snow Depth Not available.
UV 3 out of 12
Pollen 3.00 out of 12
Air Quality Not available.
Flu Activity Not available.
METAR KBAF 072053Z 18013G19KT 10SM FEW027 BKN034 BKN044 28/22 A2994 RMK AO2 LTG DSNT NW-NE SLP136 T02830222 56014

More Conditions Fewer Conditions

10-Day Weather Forecast

×

Almanac

Astronomy

Jul. 07, 2015 Rise Set
Actual Time
Civil Twilight
Nautical Twilight
Astronomical Twilight
Moon
Length of Visible Light
Length of Day
Tomorrow will be .
, % of the Moon is Illuminated

Today's Extremes

State Highs State Lows

Community

WunderPhotos

Upload Photos

1,835,902 photos uploaded!

WunderBlogs® & News

Nearby

Air Quality

  Air Quality AQ Index Pollutant
Not available.

Snow Depth

Station Depth Elevation

Earthquake Activity

City Distance Mag. Time & Date
Minimum magnitude displayed is 2.5.

Coastal Water Temperatures

Place Temperature

Stations

Nearby Weather Stations

Station Location Temp. Windchill Dew Point Humidity Wind Precip. Elev Updated Type